createdAt,value
2022-10-21T00:01:36.612Z,60.40
2022-10-21T00:07:36.594Z,59.64
2022-10-21T00:13:36.608Z,59.21
2022-10-21T00:19:36.590Z,60.05
2022-10-21T00:25:36.606Z,60.40
2022-10-21T00:31:36.602Z,61.05
2022-10-21T00:37:36.774Z,62.60
2022-10-21T00:43:36.635Z,62.13
2022-10-21T00:49:36.588Z,61.40
2022-10-21T00:55:36.603Z,61.54
2022-10-21T01:01:36.676Z,62.48
2022-10-21T01:07:40.322Z,62.49
2022-10-21T01:13:36.676Z,62.13
2022-10-21T01:19:36.627Z,62.31
2022-10-21T01:25:36.645Z,63.09
2022-10-21T01:31:36.665Z,60.81
2022-10-21T01:37:37.179Z,65.12
2022-10-21T01:43:36.670Z,63.07
2022-10-21T01:49:36.644Z,65.12
2022-10-21T01:55:36.663Z,63.21
2022-10-21T02:01:36.672Z,62.89
2022-10-21T02:07:36.694Z,63.64
2022-10-21T02:13:36.711Z,64.24
2022-10-21T02:19:36.691Z,65.23
2022-10-21T02:25:36.715Z,66.49
2022-10-21T02:31:36.705Z,65.36
2022-10-21T02:37:36.737Z,65.81
2022-10-21T02:43:36.757Z,63.97
2022-10-21T02:49:36.734Z,64.64
2022-10-21T02:55:36.730Z,62.09
2022-10-21T03:01:37.025Z,65.67
2022-10-21T03:25:36.757Z,61.85
2022-10-21T03:31:36.770Z,63.22
2022-10-21T03:37:36.768Z,62.72
2022-10-21T03:43:36.779Z,63.36
2022-10-21T03:49:36.791Z,62.21
2022-10-21T03:55:36.787Z,62.57
2022-10-21T04:01:36.808Z,61.54
2022-10-21T04:07:36.803Z,66.10
2022-10-21T04:13:36.841Z,69.04
2022-10-21T04:19:36.826Z,64.03
2022-10-21T04:25:36.824Z,64.02
2022-10-21T04:31:36.805Z,66.56
2022-10-21T04:37:36.834Z,65.28
2022-10-21T04:43:36.857Z,64.51
2022-10-21T04:49:36.833Z,64.08
2022-10-21T04:55:36.838Z,65.26
2022-10-21T05:01:36.842Z,63.81
2022-10-21T05:07:36.853Z,64.84
2022-10-21T05:13:36.838Z,64.90
2022-10-21T05:19:36.855Z,66.29
2022-10-21T05:25:36.865Z,65.51
2022-10-21T05:31:36.828Z,68.40
2022-10-21T05:37:36.905Z,65.27
2022-10-21T05:43:36.883Z,66.15
2022-10-21T05:49:36.889Z,66.04
2022-10-21T05:55:36.884Z,66.72
2022-10-21T06:01:36.996Z,67.13
2022-10-21T06:07:37.085Z,63.65
2022-10-21T06:13:36.924Z,64.44
2022-10-21T06:19:36.908Z,65.04
2022-10-21T06:25:36.910Z,63.10
2022-10-21T06:31:36.908Z,62.69
2022-10-21T06:37:37.423Z,59.71
2022-10-21T06:43:36.931Z,61.63
2022-10-21T06:49:36.937Z,60.28
2022-10-21T06:55:36.936Z,59.07
2022-10-21T07:01:55.293Z,60.95
2022-10-21T07:07:37.291Z,59.32
2022-10-21T07:13:37.009Z,58.49
2022-10-21T07:19:36.963Z,59.02
2022-10-21T07:25:36.978Z,58.75
2022-10-21T07:31:36.975Z,56.86
2022-10-21T07:37:37.389Z,58.72
2022-10-21T07:43:37.009Z,58.68
2022-10-21T07:49:36.994Z,57.87
2022-10-21T07:55:36.986Z,56.78
2022-10-21T08:01:37.099Z,57.81
2022-10-21T08:07:36.992Z,56.78
2022-10-21T08:13:37.006Z,55.26
2022-10-21T08:19:36.985Z,55.54
2022-10-21T08:25:37.022Z,54.57
2022-10-21T08:31:37.029Z,55.64
2022-10-21T08:43:37.042Z,53.87
2022-10-21T08:49:37.052Z,55.13
2022-10-21T08:55:37.038Z,56.21
2022-10-21T09:01:37.035Z,56.48
2022-10-21T09:07:37.242Z,56.95
2022-10-21T09:13:37.041Z,56.60
2022-10-21T09:19:37.065Z,53.89
2022-10-21T09:25:37.057Z,54.44
2022-10-21T09:31:37.057Z,53.78
2022-10-21T09:37:37.298Z,51.97
2022-10-21T09:43:37.130Z,50.78
2022-10-21T09:50:05.376Z,51.36
2022-10-21T09:55:37.098Z,52.11
2022-10-21T10:01:37.139Z,51.81
2022-10-21T10:07:37.102Z,51.77
2022-10-21T10:13:37.100Z,50.58
2022-10-21T10:19:37.170Z,50.13
2022-10-21T10:25:37.074Z,49.34
2022-10-21T10:31:37.111Z,48.54
2022-10-21T10:37:37.140Z,50.12
2022-10-21T10:43:37.172Z,54.22
2022-10-21T10:49:37.152Z,55.97
2022-10-21T10:55:37.154Z,55.54
2022-10-21T11:01:37.199Z,55.07
2022-10-21T11:07:37.613Z,52.89
2022-10-21T11:13:40.066Z,51.90
2022-10-21T11:19:37.136Z,51.41
2022-10-21T11:25:37.201Z,49.70
2022-10-21T11:31:43.935Z,52.56
2022-10-21T11:37:37.612Z,53.16
2022-10-21T11:43:37.221Z,50.35
2022-10-21T11:49:37.491Z,50.87
2022-10-21T11:55:37.213Z,51.89
2022-10-21T12:01:37.286Z,50.82
2022-10-21T12:07:37.216Z,51.28
2022-10-21T12:13:37.232Z,50.66
2022-10-21T12:19:37.256Z,49.79
2022-10-21T12:25:37.254Z,51.77
2022-10-21T12:31:37.244Z,50.37
2022-10-21T12:37:37.543Z,53.03
2022-10-21T12:43:37.252Z,50.09
2022-10-21T12:49:37.282Z,51.71
2022-10-21T12:55:37.283Z,52.88
2022-10-21T13:01:37.291Z,51.02
2022-10-21T13:07:37.288Z,51.14
2022-10-21T13:13:37.268Z,50.88
2022-10-21T13:19:37.278Z,52.39
2022-10-21T13:25:37.266Z,53.83
2022-10-21T13:31:37.298Z,52.65
2022-10-21T13:37:37.588Z,53.90
2022-10-21T13:43:37.322Z,53.11
2022-10-21T13:49:37.305Z,53.19
2022-10-21T13:55:37.323Z,54.05
2022-10-21T14:01:37.390Z,54.52
2022-10-21T14:07:37.720Z,58.18
2022-10-21T14:13:37.353Z,55.95
2022-10-21T14:19:37.382Z,59.08
2022-10-21T14:25:37.365Z,54.76
2022-10-21T14:31:37.372Z,56.01
2022-10-21T14:37:37.406Z,56.29
2022-10-21T14:43:37.370Z,56.41
2022-10-21T14:49:37.391Z,56.70
2022-10-21T14:55:37.378Z,55.30
2022-10-21T15:01:37.387Z,56.27
2022-10-21T15:07:37.418Z,56.43
2022-10-21T15:13:37.400Z,59.15
2022-10-21T15:19:37.425Z,59.52
2022-10-21T15:31:37.429Z,61.24
2022-10-21T15:37:37.833Z,60.27
2022-10-21T15:43:37.486Z,60.20
2022-10-21T15:49:37.428Z,61.87
2022-10-21T15:55:37.445Z,59.91
2022-10-21T16:01:37.485Z,60.19
2022-10-21T16:07:37.421Z,60.90
2022-10-21T16:13:37.479Z,63.02
2022-10-21T16:19:37.462Z,60.67
2022-10-21T16:25:37.467Z,63.68
2022-10-21T16:31:37.485Z,63.67
2022-10-21T16:37:37.488Z,62.37
2022-10-21T16:43:37.482Z,64.04
2022-10-21T16:49:37.479Z,66.48
2022-10-21T16:55:37.497Z,65.80
2022-10-21T17:01:37.487Z,66.00
2022-10-21T17:07:38.005Z,63.69
2022-10-21T17:13:37.571Z,62.99
2022-10-21T17:19:37.537Z,62.51
2022-10-21T17:25:37.580Z,63.21
2022-10-21T17:31:37.552Z,64.09
2022-10-21T17:37:37.843Z,63.29
2022-10-21T17:43:37.532Z,62.92
2022-10-21T17:49:37.514Z,62.97
2022-10-21T17:55:37.542Z,64.62
2022-10-21T18:01:37.573Z,65.25
2022-10-21T18:07:37.868Z,66.27
2022-10-21T18:13:37.572Z,66.63
2022-10-21T18:19:37.578Z,66.65
2022-10-21T18:25:37.597Z,64.09
2022-10-21T18:31:37.590Z,64.15
2022-10-21T18:37:38.045Z,64.96
2022-10-21T18:43:37.604Z,66.47
2022-10-21T18:49:37.638Z,65.51
2022-10-21T18:55:37.618Z,66.91
2022-10-21T19:01:37.636Z,65.31
2022-10-21T19:25:37.642Z,65.68
2022-10-21T19:31:38.572Z,65.49
2022-10-21T19:37:37.662Z,65.67
2022-10-21T19:43:37.651Z,67.10
2022-10-21T19:49:37.638Z,67.68
2022-10-21T19:55:37.629Z,66.92
2022-10-21T20:01:37.733Z,68.75
2022-10-21T20:07:37.934Z,65.96
2022-10-21T20:13:37.659Z,67.71
2022-10-21T20:19:37.668Z,66.14
2022-10-21T20:25:37.667Z,65.68
2022-10-21T20:31:37.684Z,66.09
2022-10-21T20:37:38.187Z,67.35
2022-10-21T20:43:37.708Z,66.90
2022-10-21T20:49:37.697Z,67.18
2022-10-21T20:55:37.696Z,67.20
2022-10-21T21:01:41.601Z,66.63
2022-10-21T21:07:38.143Z,66.57
2022-10-21T21:13:41.986Z,68.05
2022-10-21T21:19:37.732Z,67.22
2022-10-21T21:25:37.695Z,66.62
2022-10-21T21:31:37.729Z,68.88
2022-10-21T21:37:37.746Z,74.03
2022-10-21T21:43:37.761Z,71.77
2022-10-21T21:49:37.745Z,69.34
2022-10-21T21:55:37.737Z,71.57
2022-10-21T22:01:37.918Z,68.26
2022-10-21T22:07:37.905Z,68.16
2022-10-21T22:13:37.747Z,67.03
2022-10-21T22:19:37.770Z,68.76
2022-10-21T22:25:37.752Z,70.44
2022-10-21T22:31:37.786Z,68.51
2022-10-21T22:37:38.138Z,68.80
2022-10-21T22:43:37.805Z,68.05
2022-10-21T22:49:37.807Z,66.94
2022-10-21T22:55:37.789Z,69.30
2022-10-21T23:01:37.815Z,71.42
2022-10-21T23:07:37.829Z,73.78
2022-10-21T23:13:37.996Z,70.93
2022-10-21T23:19:37.841Z,68.58
2022-10-21T23:25:37.877Z,68.03
2022-10-21T23:31:37.840Z,70.39
2022-10-21T23:37:38.099Z,69.31
2022-10-21T23:43:37.840Z,70.13
2022-10-21T23:49:37.861Z,69.52
2022-10-21T23:55:37.873Z,68.60
